createdAt,value
2022-10-09T00:01:31.766Z,2.10
2022-10-09T00:04:00.606Z,2.50
2022-10-09T00:06:32.742Z,2.25
2022-10-09T00:09:04.930Z,2.15
2022-10-09T00:11:35.437Z,2.22
2022-10-09T00:14:04.975Z,2.20
2022-10-09T00:16:33.703Z,2.50
2022-10-09T00:19:02.794Z,2.15
2022-10-09T00:21:34.945Z,2.03
2022-10-09T00:24:05.171Z,2.28
2022-10-09T00:26:33.904Z,2.28
2022-10-09T00:29:02.275Z,2.20
2022-10-09T00:31:30.956Z,2.10
2022-10-09T00:33:59.205Z,2.08
2022-10-09T00:36:28.205Z,2.47
2022-10-09T00:38:57.330Z,2.20
2022-10-09T00:41:31.041Z,2.20
2022-10-09T00:44:01.801Z,2.30
2022-10-09T00:46:43.225Z,2.17
2022-10-09T00:49:33.330Z,2.40
2022-10-09T00:52:08.141Z,2.00
2022-10-09T00:54:39.084Z,2.30
2022-10-09T00:57:08.185Z,2.10
2022-10-09T00:59:37.580Z,2.03
2022-10-09T01:02:06.123Z,2.17
2022-10-09T01:04:34.640Z,2.33
2022-10-09T01:07:20.464Z,2.10
2022-10-09T01:09:57.911Z,2.30
2022-10-09T01:12:29.161Z,2.00
2022-10-09T01:15:37.037Z,2.30
2022-10-09T01:18:39.415Z,2.13
2022-10-09T01:21:15.417Z,2.20
2022-10-09T01:24:04.384Z,2.10
2022-10-09T01:26:47.576Z,2.10
2022-10-09T01:29:17.004Z,2.00
2022-10-09T01:31:49.891Z,2.00
2022-10-09T01:34:21.055Z,1.98
2022-10-09T01:36:50.125Z,2.10
2022-10-09T01:39:22.655Z,2.05
2022-10-09T01:41:53.476Z,2.40
2022-10-09T01:44:25.615Z,2.17
2022-10-09T01:46:54.354Z,2.13
2022-10-09T01:49:53.112Z,2.17
2022-10-09T01:52:51.543Z,2.30
2022-10-09T01:55:33.815Z,2.28
2022-10-09T01:58:04.795Z,2.17
2022-10-09T02:00:38.764Z,2.08
2022-10-09T02:03:12.731Z,2.10
2022-10-09T02:05:44.065Z,2.30
2022-10-09T02:08:17.755Z,1.85
2022-10-09T02:10:49.645Z,2.22
2022-10-09T02:13:19.092Z,2.72
2022-10-09T02:15:47.404Z,1.92
2022-10-09T02:18:19.891Z,2.25
2022-10-09T02:20:53.010Z,2.22
2022-10-09T02:23:23.080Z,2.33
2022-10-09T02:25:51.900Z,2.05
2022-10-09T02:28:20.382Z,2.30
2022-10-09T02:31:23.620Z,2.45
2022-10-09T02:34:04.769Z,2.40
2022-10-09T02:36:33.484Z,2.40
2022-10-09T02:39:02.649Z,2.15
2022-10-09T02:41:30.931Z,2.25
2022-10-09T02:43:59.366Z,2.53
2022-10-09T02:46:28.585Z,2.47
2022-10-09T02:48:56.995Z,2.33
2022-10-09T02:51:26.442Z,2.33
2022-10-09T02:53:55.370Z,2.30
2022-10-09T02:56:24.290Z,2.08
2022-10-09T02:58:53.012Z,2.00
2022-10-09T03:01:21.442Z,2.30
2022-10-09T03:03:49.803Z,1.80
2022-10-09T03:06:23.179Z,2.28
2022-10-09T03:08:52.650Z,2.20
2022-10-09T03:11:23.205Z,2.25
2022-10-09T03:13:52.289Z,2.00
2022-10-09T03:16:23.027Z,2.05
2022-10-09T03:18:53.004Z,1.92
2022-10-09T03:21:26.783Z,2.30
2022-10-09T03:23:57.290Z,2.15
2022-10-09T03:26:28.681Z,1.85
2022-10-09T03:28:57.432Z,1.98
2022-10-09T03:34:16.486Z,1.90
2022-10-09T03:36:44.810Z,2.03
2022-10-09T03:39:13.581Z,1.98
2022-10-09T03:41:41.814Z,2.05
2022-10-09T03:44:10.085Z,1.67
2022-10-09T03:46:38.447Z,1.83
2022-10-09T03:49:06.895Z,2.33
2022-10-09T03:51:35.244Z,2.05
2022-10-09T03:54:03.542Z,2.30
2022-10-09T03:56:31.890Z,2.97
2022-10-09T03:59:00.356Z,5.38
2022-10-09T04:01:28.749Z,2.63
2022-10-09T04:03:57.041Z,2.30
2022-10-09T04:06:25.481Z,2.33
2022-10-09T04:08:54.133Z,2.08
2022-10-09T04:11:22.606Z,1.92
2022-10-09T04:13:50.897Z,1.88
2022-10-09T04:16:19.305Z,2.00
2022-10-09T04:18:48.798Z,1.60
2022-10-09T04:21:17.158Z,1.80
2022-10-09T04:23:45.596Z,1.98
2022-10-09T04:26:14.515Z,2.00
2022-10-09T04:28:42.980Z,1.85
2022-10-09T04:31:11.530Z,2.28
2022-10-09T04:33:39.880Z,2.00
2022-10-09T04:36:08.358Z,1.80
2022-10-09T04:38:36.700Z,1.92
2022-10-09T04:41:07.666Z,1.98
2022-10-09T04:43:36.468Z,2.00
2022-10-09T04:46:09.472Z,1.88
2022-10-09T04:48:45.971Z,2.10
2022-10-09T04:51:15.717Z,2.00
2022-10-09T04:53:44.930Z,2.38
2022-10-09T04:56:19.070Z,2.03
2022-10-09T04:58:48.291Z,2.33
2022-10-09T05:01:20.710Z,2.30
2022-10-09T05:03:49.980Z,2.40
2022-10-09T05:06:19.944Z,2.10
2022-10-09T05:08:48.335Z,2.20
2022-10-09T05:11:25.650Z,2.35
2022-10-09T05:13:57.011Z,2.33
2022-10-09T05:16:28.193Z,2.30
2022-10-09T05:18:58.971Z,2.17
2022-10-09T05:21:28.980Z,2.03
2022-10-09T05:23:57.997Z,2.10
2022-10-09T05:26:27.405Z,2.08
2022-10-09T05:28:56.239Z,2.38
2022-10-09T05:31:27.504Z,2.15
2022-10-09T05:33:57.505Z,2.50
2022-10-09T05:36:25.664Z,2.58
2022-10-09T05:38:53.831Z,2.47
2022-10-09T05:41:22.130Z,2.17
2022-10-09T05:43:51.186Z,2.25
2022-10-09T05:46:24.676Z,2.53
2022-10-09T05:48:55.614Z,2.28
2022-10-09T05:51:31.245Z,2.42
2022-10-09T05:54:02.720Z,2.42
2022-10-09T05:56:30.832Z,2.47
2022-10-09T05:59:07.309Z,2.45
2022-10-09T06:01:41.072Z,2.45
2022-10-09T06:04:13.960Z,2.72
2022-10-09T06:06:42.902Z,2.50
2022-10-09T06:09:12.353Z,2.75
2022-10-09T06:11:41.963Z,3.03
2022-10-09T06:14:12.946Z,2.60
2022-10-09T06:16:46.279Z,3.00
2022-10-09T06:19:16.528Z,2.78
2022-10-09T06:21:45.955Z,2.70
2022-10-09T06:24:29.205Z,2.80
2022-10-09T06:26:59.080Z,2.13
2022-10-09T06:29:27.417Z,2.95
2022-10-09T06:31:55.572Z,2.70
2022-10-09T06:34:24.204Z,2.60
2022-10-09T06:36:52.526Z,2.67
2022-10-09T06:39:21.019Z,3.35
2022-10-09T06:41:49.466Z,2.70
2022-10-09T06:44:17.970Z,2.45
2022-10-09T06:46:49.591Z,2.80
2022-10-09T06:49:18.127Z,2.42
2022-10-09T06:51:46.420Z,2.92
2022-10-09T06:54:18.250Z,2.45
2022-10-09T06:56:46.766Z,2.67
2022-10-09T06:59:15.066Z,2.78
2022-10-09T07:01:43.593Z,2.72
2022-10-09T07:04:20.922Z,2.58
2022-10-09T07:06:49.136Z,2.47
2022-10-09T07:09:17.911Z,2.35
2022-10-09T07:11:49.966Z,3.13
2022-10-09T07:14:18.921Z,2.60
2022-10-09T07:16:49.961Z,2.58
2022-10-09T07:19:19.845Z,2.50
2022-10-09T07:21:50.764Z,2.53
2022-10-09T07:24:21.325Z,2.33
2022-10-09T07:26:49.639Z,2.70
2022-10-09T07:29:20.128Z,2.60
2022-10-09T07:31:48.775Z,2.72
2022-10-09T07:34:17.481Z,2.70
2022-10-09T07:36:45.811Z,2.63
2022-10-09T07:39:14.535Z,2.72
2022-10-09T07:41:43.252Z,2.50
2022-10-09T07:44:13.012Z,2.60
2022-10-09T07:46:41.383Z,2.53
2022-10-09T07:49:12.059Z,2.50
2022-10-09T07:51:40.659Z,2.80
2022-10-09T07:54:08.845Z,2.45
2022-10-09T07:56:38.924Z,2.40
2022-10-09T07:59:12.166Z,2.67
2022-10-09T08:01:40.918Z,2.40
2022-10-09T08:04:09.505Z,2.33
2022-10-09T08:06:37.914Z,2.80
2022-10-09T08:09:08.211Z,2.47
2022-10-09T08:11:37.061Z,2.40
2022-10-09T08:14:05.326Z,2.50
2022-10-09T08:16:33.962Z,2.50
2022-10-09T08:19:06.225Z,2.58
2022-10-09T08:21:34.545Z,2.85
2022-10-09T08:24:02.930Z,2.72
2022-10-09T08:26:32.083Z,2.90
2022-10-09T08:29:02.919Z,3.00
2022-10-09T08:31:32.726Z,2.70
2022-10-09T08:34:03.885Z,2.72
2022-10-09T08:36:32.974Z,3.00
2022-10-09T08:39:05.115Z,2.72
2022-10-09T08:41:43.025Z,3.10
2022-10-09T08:44:32.956Z,2.83
2022-10-09T08:47:01.335Z,2.85
2022-10-09T08:49:39.811Z,3.05
2022-10-09T08:52:39.885Z,3.17
2022-10-09T08:55:20.204Z,2.83
2022-10-09T08:57:55.227Z,3.03
2022-10-09T09:00:33.000Z,2.60
2022-10-09T09:03:14.981Z,2.40
2022-10-09T09:06:03.225Z,2.75
2022-10-09T09:08:39.078Z,2.40
2022-10-09T09:11:21.934Z,2.30
2022-10-09T09:13:53.097Z,2.80
2022-10-09T09:16:30.309Z,2.70
2022-10-09T09:19:19.241Z,2.97
2022-10-09T09:21:54.589Z,2.47
2022-10-09T09:24:53.161Z,2.60
2022-10-09T09:27:27.700Z,2.80
2022-10-09T09:32:51.723Z,2.85
2022-10-09T09:35:38.925Z,2.97
2022-10-09T09:38:07.246Z,3.05
2022-10-09T09:40:37.738Z,3.30
2022-10-09T09:43:17.970Z,3.20
2022-10-09T09:45:47.210Z,2.80
2022-10-09T09:48:29.480Z,3.13
2022-10-09T09:51:16.273Z,2.95
2022-10-09T09:53:50.603Z,3.05
2022-10-09T09:56:19.845Z,2.95
2022-10-09T09:58:56.055Z,3.20
2022-10-09T10:01:27.722Z,2.97
2022-10-09T10:04:02.570Z,4.13
2022-10-09T10:06:33.908Z,4.90
2022-10-09T10:09:25.330Z,5.82
2022-10-09T10:12:00.854Z,5.75
2022-10-09T10:14:29.811Z,5.95
2022-10-09T10:17:01.162Z,5.30
2022-10-09T10:19:32.356Z,6.18
2022-10-09T10:22:03.085Z,5.03
2022-10-09T10:24:47.730Z,5.43
2022-10-09T10:27:42.925Z,5.18
2022-10-09T10:30:17.262Z,5.03
2022-10-09T10:33:05.142Z,5.10
2022-10-09T10:35:39.715Z,5.13
2022-10-09T10:41:00.035Z,5.40
2022-10-09T10:43:35.239Z,5.22
2022-10-09T10:46:16.701Z,5.28
2022-10-09T10:48:48.204Z,6.10
2022-10-09T10:51:47.859Z,5.47
2022-10-09T10:54:46.730Z,6.15
2022-10-09T10:57:25.446Z,5.20
2022-10-09T11:00:12.323Z,5.65
2022-10-09T11:03:07.643Z,5.57
2022-10-09T11:05:59.400Z,6.22
2022-10-09T11:08:53.491Z,6.22
2022-10-09T11:11:38.770Z,6.65
2022-10-09T11:14:34.790Z,6.55
2022-10-09T11:17:14.765Z,5.97
2022-10-09T11:20:06.925Z,6.47
2022-10-09T11:22:53.006Z,5.47
2022-10-09T11:25:33.967Z,5.68
2022-10-09T11:28:10.885Z,6.18
2022-10-09T11:30:45.495Z,6.10
2022-10-09T11:36:11.241Z,6.40
2022-10-09T11:38:53.004Z,6.88
2022-10-09T11:41:21.496Z,6.95
2022-10-09T11:43:54.290Z,7.32
2022-10-09T11:46:40.215Z,6.65
2022-10-09T11:49:32.345Z,6.93
2022-10-09T11:52:40.839Z,6.40
2022-10-09T11:55:28.505Z,5.95
2022-10-09T11:58:07.886Z,6.22
2022-10-09T12:00:38.586Z,6.32
2022-10-09T12:03:08.836Z,6.35
2022-10-09T12:05:44.171Z,6.07
2022-10-09T12:08:19.523Z,5.85
2022-10-09T12:11:11.560Z,6.25
2022-10-09T12:13:42.600Z,7.50
2022-10-09T12:16:33.370Z,7.03
2022-10-09T12:19:12.901Z,7.60
2022-10-09T12:21:58.289Z,6.32
2022-10-09T12:24:44.031Z,6.60
2022-10-09T12:27:33.298Z,6.18
2022-10-09T12:30:14.451Z,6.38
2022-10-09T12:32:48.173Z,6.82
2022-10-09T12:35:24.341Z,7.57
2022-10-09T12:37:53.160Z,6.22
2022-10-09T12:40:33.661Z,6.28
2022-10-09T12:43:08.685Z,6.72
2022-10-09T12:45:46.153Z,6.25
2022-10-09T12:48:15.560Z,6.80
2022-10-09T12:50:47.074Z,6.45
2022-10-09T12:53:19.044Z,6.28
2022-10-09T12:56:01.805Z,7.70
2022-10-09T12:58:30.067Z,6.32
2022-10-09T13:01:02.680Z,8.02
2022-10-09T13:03:35.210Z,7.20
2022-10-09T13:06:05.788Z,7.63
2022-10-09T13:08:37.960Z,7.38
2022-10-09T13:11:25.513Z,7.53
2022-10-09T13:13:55.571Z,6.15
2022-10-09T13:16:25.627Z,7.07
2022-10-09T13:19:05.485Z,6.80
2022-10-09T13:21:35.583Z,6.60
2022-10-09T13:24:12.198Z,6.78
2022-10-09T13:26:43.713Z,6.90
2022-10-09T13:29:16.690Z,7.05
2022-10-09T13:31:47.430Z,8.68
2022-10-09T13:34:17.321Z,7.22
2022-10-09T13:36:45.624Z,6.90
2022-10-09T13:39:17.160Z,7.95
2022-10-09T13:41:47.071Z,8.07
2022-10-09T13:44:18.284Z,7.47
2022-10-09T13:46:46.820Z,7.18
2022-10-09T13:49:15.404Z,6.63
2022-10-09T13:51:43.853Z,7.80
2022-10-09T13:54:12.301Z,7.80
2022-10-09T13:56:40.545Z,6.75
2022-10-09T13:59:08.846Z,7.18
2022-10-09T14:01:37.154Z,7.07
2022-10-09T14:04:05.492Z,7.53
2022-10-09T14:06:36.980Z,8.27
2022-10-09T14:09:06.434Z,7.82
2022-10-09T14:11:35.242Z,6.57
2022-10-09T14:14:03.841Z,7.40
2022-10-09T14:16:32.841Z,6.45
2022-10-09T14:19:03.404Z,7.20
2022-10-09T14:21:31.889Z,6.93
2022-10-09T14:24:02.764Z,8.40
2022-10-09T14:26:31.562Z,7.43
2022-10-09T14:29:01.805Z,7.40
2022-10-09T14:31:31.028Z,7.28
2022-10-09T14:34:00.685Z,7.43
2022-10-09T14:36:30.086Z,7.20
2022-10-09T14:39:04.498Z,6.93
2022-10-09T14:44:06.770Z,6.85
2022-10-09T14:46:35.890Z,7.65
2022-10-09T14:49:08.210Z,6.95
2022-10-09T14:51:38.646Z,7.82
2022-10-09T14:54:08.360Z,6.60
2022-10-09T14:56:37.486Z,7.65
2022-10-09T14:59:09.810Z,7.03
2022-10-09T15:01:40.097Z,6.80
2022-10-09T15:04:08.477Z,6.45
2022-10-09T15:06:36.943Z,6.75
2022-10-09T15:09:06.718Z,7.25
2022-10-09T15:11:36.812Z,7.28
2022-10-09T15:14:05.799Z,7.70
2022-10-09T15:16:34.080Z,7.57
2022-10-09T15:19:03.096Z,7.70
2022-10-09T15:21:33.154Z,7.07
2022-10-09T15:24:02.940Z,8.20
2022-10-09T15:26:33.980Z,7.72
2022-10-09T15:29:04.195Z,7.07
2022-10-09T15:31:42.536Z,7.07
2022-10-09T15:34:16.766Z,7.38
2022-10-09T15:36:46.924Z,7.65
2022-10-09T15:39:16.360Z,7.55
2022-10-09T15:41:45.105Z,7.72
2022-10-09T15:44:21.623Z,7.38
2022-10-09T15:46:51.435Z,7.03
2022-10-09T15:49:19.780Z,7.25
2022-10-09T15:51:48.115Z,7.80
2022-10-09T15:54:16.679Z,7.50
2022-10-09T15:56:45.105Z,7.70
2022-10-09T15:59:19.559Z,6.88
2022-10-09T16:01:49.361Z,6.95
2022-10-09T16:04:17.661Z,7.38
2022-10-09T16:06:45.865Z,7.22
2022-10-09T16:09:14.906Z,7.38
2022-10-09T16:11:43.310Z,6.57
2022-10-09T16:14:11.606Z,6.97
2022-10-09T16:16:40.032Z,7.28
2022-10-09T16:19:08.531Z,8.80
2022-10-09T16:21:36.797Z,8.57
2022-10-09T16:24:05.275Z,7.20
2022-10-09T16:26:33.652Z,7.38
2022-10-09T16:29:04.470Z,7.40
2022-10-09T16:31:37.390Z,7.40
2022-10-09T16:34:10.571Z,7.32
2022-10-09T16:36:38.931Z,7.93
2022-10-09T16:39:07.721Z,7.68
2022-10-09T16:41:41.003Z,6.53
2022-10-09T16:44:14.931Z,7.93
2022-10-09T16:46:43.250Z,7.50
2022-10-09T16:49:21.261Z,7.43
2022-10-09T16:51:52.374Z,8.95
2022-10-09T16:54:20.606Z,8.80
2022-10-09T16:56:48.965Z,7.57
2022-10-09T16:59:17.785Z,7.60
2022-10-09T17:01:47.635Z,8.98
2022-10-09T17:04:15.910Z,7.63
2022-10-09T17:06:45.490Z,8.23
2022-10-09T17:09:14.732Z,7.55
2022-10-09T17:11:44.382Z,7.10
2022-10-09T17:14:13.988Z,8.27
2022-10-09T17:16:43.592Z,7.55
2022-10-09T17:19:12.606Z,7.93
2022-10-09T17:21:40.927Z,8.35
2022-10-09T17:24:13.100Z,7.95
2022-10-09T17:26:41.811Z,8.10
2022-10-09T17:29:10.259Z,7.60
2022-10-09T17:31:38.496Z,7.90
2022-10-09T17:34:07.077Z,8.38
2022-10-09T17:36:38.477Z,8.30
2022-10-09T17:39:10.340Z,7.15
2022-10-09T17:41:38.622Z,7.82
2022-10-09T17:44:07.240Z,7.65
2022-10-09T17:46:35.590Z,8.00
2022-10-09T17:49:04.090Z,8.32
2022-10-09T17:51:39.831Z,8.63
2022-10-09T17:54:18.852Z,7.32
2022-10-09T17:56:47.251Z,8.43
2022-10-09T17:59:16.696Z,9.80
2022-10-09T18:01:45.057Z,8.43
2022-10-09T18:04:17.410Z,8.90
2022-10-09T18:06:46.287Z,8.35
2022-10-09T18:09:14.745Z,9.35
2022-10-09T18:11:43.861Z,9.07
2022-10-09T18:14:13.007Z,8.55
2022-10-09T18:16:41.810Z,9.25
2022-10-09T18:19:14.122Z,8.38
2022-10-09T18:21:45.022Z,9.25
2022-10-09T18:24:14.947Z,8.23
2022-10-09T18:26:44.097Z,8.60
2022-10-09T18:29:12.403Z,8.30
2022-10-09T18:31:40.999Z,8.27
2022-10-09T18:34:10.765Z,8.95
2022-10-09T18:36:40.241Z,9.98
2022-10-09T18:39:14.447Z,9.18
2022-10-09T18:41:44.032Z,9.70
2022-10-09T18:44:20.526Z,8.52
2022-10-09T18:46:58.281Z,9.55
2022-10-09T18:49:30.101Z,8.50
2022-10-09T18:52:01.000Z,8.38
2022-10-09T18:54:31.547Z,8.80
2022-10-09T18:57:00.013Z,9.05
2022-10-09T18:59:28.346Z,9.07
2022-10-09T19:01:59.431Z,9.15
2022-10-09T19:04:27.605Z,8.43
2022-10-09T19:06:56.364Z,7.93
2022-10-09T19:09:24.842Z,8.32
2022-10-09T19:11:53.653Z,7.38
2022-10-09T19:14:22.295Z,6.95
2022-10-09T19:16:50.541Z,7.82
2022-10-09T19:19:19.400Z,7.22
2022-10-09T19:21:47.670Z,6.25
2022-10-09T19:24:15.987Z,6.65
2022-10-09T19:26:44.528Z,7.03
2022-10-09T19:29:12.865Z,6.50
2022-10-09T19:31:41.070Z,6.72
2022-10-09T19:34:09.484Z,6.70
2022-10-09T19:36:37.970Z,6.90
2022-10-09T19:39:09.000Z,7.13
2022-10-09T19:41:37.603Z,6.93
2022-10-09T19:44:05.965Z,7.15
2022-10-09T19:46:38.070Z,6.78
2022-10-09T19:49:07.981Z,6.20
2022-10-09T19:51:37.765Z,6.70
2022-10-09T19:54:08.856Z,6.75
2022-10-09T19:56:38.406Z,6.40
2022-10-09T19:59:09.005Z,5.60
2022-10-09T20:01:38.654Z,5.80
2022-10-09T20:04:10.665Z,6.32
2022-10-09T20:06:40.846Z,5.20
2022-10-09T20:09:10.439Z,6.18
2022-10-09T20:11:40.010Z,7.28
2022-10-09T20:14:10.263Z,6.68
2022-10-09T20:16:38.590Z,6.75
2022-10-09T20:19:07.665Z,6.80
2022-10-09T20:21:36.561Z,6.05
2022-10-09T20:24:05.116Z,6.50
2022-10-09T20:26:34.428Z,6.75
2022-10-09T20:29:02.761Z,6.10
2022-10-09T20:31:31.237Z,6.20
2022-10-09T20:33:59.881Z,5.72
2022-10-09T20:36:32.045Z,5.43
2022-10-09T20:39:03.604Z,4.82
2022-10-09T20:41:33.245Z,4.95
2022-10-09T20:44:03.084Z,5.07
2022-10-09T20:46:35.102Z,4.10
2022-10-09T20:49:13.311Z,3.47
2022-10-09T20:51:45.305Z,3.50
2022-10-09T20:54:23.025Z,3.67
2022-10-09T20:56:51.485Z,3.63
2022-10-09T20:59:22.474Z,3.60
2022-10-09T21:01:50.866Z,3.85
2022-10-09T21:04:19.110Z,4.05
2022-10-09T21:06:47.555Z,4.10
2022-10-09T21:09:15.875Z,4.40
2022-10-09T21:11:46.536Z,3.60
2022-10-09T21:14:15.235Z,3.70
2022-10-09T21:16:43.609Z,3.70
2022-10-09T21:19:12.330Z,4.15
2022-10-09T21:21:40.697Z,4.40
2022-10-09T21:24:09.016Z,3.35
2022-10-09T21:26:37.359Z,3.40
2022-10-09T21:29:06.901Z,3.40
2022-10-09T21:31:35.844Z,3.67
2022-10-09T21:34:04.098Z,4.13
2022-10-09T21:37:08.840Z,4.55
2022-10-09T21:39:35.700Z,3.88
2022-10-09T21:42:04.028Z,4.20
2022-10-09T21:44:32.355Z,4.38
2022-10-09T21:47:00.649Z,4.63
2022-10-09T21:49:29.326Z,4.45
2022-10-09T21:51:57.980Z,4.43
2022-10-09T21:54:26.216Z,5.05
2022-10-09T21:56:54.520Z,4.25
2022-10-09T21:59:22.735Z,4.55
2022-10-09T22:01:51.220Z,3.55
2022-10-09T22:04:19.566Z,5.20
2022-10-09T22:06:47.950Z,4.93
2022-10-09T22:09:16.685Z,4.60
2022-10-09T22:11:45.830Z,4.45
2022-10-09T22:14:14.600Z,4.30
2022-10-09T22:16:42.941Z,3.70
2022-10-09T22:19:11.410Z,4.10
2022-10-09T22:21:39.727Z,4.53
2022-10-09T22:24:09.015Z,4.03
2022-10-09T22:26:37.555Z,4.35
2022-10-09T22:29:05.974Z,4.55
2022-10-09T22:31:34.218Z,4.50
2022-10-09T22:34:03.538Z,3.90
2022-10-09T22:36:34.270Z,4.10
2022-10-09T22:39:05.664Z,4.03
2022-10-09T22:41:35.294Z,3.80
2022-10-09T22:44:05.230Z,3.97
2022-10-09T22:46:39.395Z,3.72
2022-10-09T22:49:11.516Z,3.35
2022-10-09T22:51:39.730Z,3.03
2022-10-09T22:54:08.559Z,3.67
2022-10-09T22:56:43.082Z,3.00
2022-10-09T22:59:14.501Z,2.60
2022-10-09T23:01:46.979Z,2.78
2022-10-09T23:04:17.367Z,2.85
2022-10-09T23:06:50.215Z,2.88
2022-10-09T23:09:19.801Z,2.60
2022-10-09T23:11:48.055Z,2.85
2022-10-09T23:14:16.331Z,3.15
2022-10-09T23:16:44.876Z,2.75
2022-10-09T23:19:13.135Z,3.03
2022-10-09T23:21:43.313Z,2.50
2022-10-09T23:24:18.557Z,3.10
2022-10-09T23:26:47.641Z,3.20
2022-10-09T23:29:18.962Z,2.70
2022-10-09T23:31:47.652Z,2.78
2022-10-09T23:34:16.191Z,2.70
2022-10-09T23:36:44.455Z,2.40
2022-10-09T23:39:13.295Z,2.33
2022-10-09T23:41:41.720Z,2.03
2022-10-09T23:44:11.346Z,2.53
2022-10-09T23:46:39.670Z,2.90
2022-10-09T23:49:08.266Z,2.28
2022-10-09T23:51:36.492Z,2.55
2022-10-09T23:54:04.799Z,2.97
2022-10-09T23:56:35.576Z,2.30
2022-10-09T23:59:09.576Z,2.10
